Time;durP1;ratioP1;P1;durP2;ratioP2;P2;SDS_P1;SDS_P2;PMS_P1;PMS_P2;Temp;Humidity;BMP_temperature;BMP_pressure;BME280_temperature;BME280_humidity;BME280_pressure;Samples;Min_cycle;Max_cycle;Signal;HPM_P1;HPM_P2
2022/10/30 00:00:41;;;;;;;2.80;2.60;;;20.40;67.80;;;;;;5069607;28;43451;-59
2022/10/30 00:03:13;;;;;;;2.88;2.40;;;20.40;67.80;;;;;;5076075;27;43432;-59
2022/10/30 00:05:47;;;;;;;3.38;2.60;;;20.40;67.80;;;;;;5061894;28;43743;-59
2022/10/30 00:08:17;;;;;;;2.80;2.50;;;20.40;67.90;;;;;;5077041;28;43481;-59
2022/10/30 00:10:45;;;;;;;3.70;2.50;;;20.40;67.90;;;;;;5077914;28;43424;-59
2022/10/30 00:13:13;;;;;;;2.90;2.70;;;20.40;67.90;;;;;;5079501;27;43548;-59
2022/10/30 00:15:49;;;;;;;2.97;2.72;;;20.40;67.90;;;;;;5077592;27;44071;-59
2022/10/30 00:18:17;;;;;;;2.90;2.60;;;20.30;67.90;;;;;;5064287;28;43432;-59
2022/10/30 00:20:45;;;;;;;2.55;2.35;;;20.30;67.90;;;;;;5068089;28;43428;-59
2022/10/30 00:23:13;;;;;;;2.83;2.45;;;20.30;67.80;;;;;;5079172;28;43624;-59
2022/10/30 00:25:41;;;;;;;3.05;2.63;;;20.30;67.90;;;;;;5075669;27;44106;-59
2022/10/30 00:28:08;;;;;;;2.72;2.53;;;20.30;67.90;;;;;;5078471;28;43478;-59
2022/10/30 00:30:36;;;;;;;3.70;2.58;;;20.30;67.90;;;;;;5077125;28;43418;-59
2022/10/30 00:33:03;;;;;;;3.17;2.70;;;20.30;67.90;;;;;;5079289;27;43434;-59
2022/10/30 00:35:31;;;;;;;2.55;2.35;;;20.30;67.90;;;;;;5075103;28;44986;-60
2022/10/30 00:37:59;;;;;;;2.50;2.30;;;20.30;67.90;;;;;;5078611;28;43522;-59
2022/10/30 00:40:28;;;;;;;2.83;2.60;;;20.30;68.00;;;;;;5069768;28;43405;-59
2022/10/30 00:42:55;;;;;;;2.70;2.50;;;20.30;68.00;;;;;;5065600;28;43485;-59
2022/10/30 00:45:23;;;;;;;2.83;2.63;;;20.30;68.00;;;;;;5078140;28;44773;-59
2022/10/30 00:47:57;;;;;;;2.72;2.53;;;20.30;68.00;;;;;;5069150;28;44306;-59
2022/10/30 00:50:32;;;;;;;2.47;2.28;;;20.30;68.00;;;;;;5080240;28;43427;-59
2022/10/30 00:53:04;;;;;;;2.85;2.53;;;20.30;68.00;;;;;;5065941;28;43495;-59
2022/10/30 00:55:58;;;;;;;2.92;2.72;;;20.30;68.00;;;;;;5065417;28;45003;-59
2022/10/30 00:58:30;;;;;;;2.85;2.65;;;20.20;68.00;;;;;;5074861;28;43403;-59
2022/10/30 01:01:02;;;;;;;3.13;2.83;;;20.20;68.00;;;;;;5066037;28;43371;-59
2022/10/30 01:03:30;;;;;;;2.65;2.45;;;20.20;68.00;;;;;;5076795;28;43463;-59
2022/10/30 01:06:01;;;;;;;2.78;2.58;;;20.20;68.00;;;;;;5063838;28;45034;-59
2022/10/30 01:08:29;;;;;;;2.70;2.50;;;20.20;68.00;;;;;;5080469;28;43692;-59
2022/10/30 01:11:01;;;;;;;2.63;2.42;;;20.20;68.00;;;;;;5077214;28;43405;-59
2022/10/30 01:13:29;;;;;;;2.88;2.47;;;20.20;68.00;;;;;;5069094;28;43456;-59
2022/10/30 01:16:03;;;;;;;2.90;2.67;;;20.20;68.00;;;;;;5080565;28;44753;-59
2022/10/30 01:18:33;;;;;;;2.50;2.30;;;20.20;68.00;;;;;;5063268;28;43783;-59
2022/10/30 01:21:10;;;;;;;3.05;2.75;;;20.20;68.00;;;;;;5075599;28;43431;-59
2022/10/30 01:24:06;;;;;;;3.10;2.80;;;20.20;68.10;;;;;;5081376;27;43457;-59
2022/10/30 01:26:58;;;;;;;2.78;2.55;;;20.20;68.10;;;;;;5077717;28;44876;-59
2022/10/30 01:30:06;;;;;;;2.70;2.50;;;20.10;68.00;;;;;;5064699;28;43654;-59
2022/10/30 01:32:40;;;;;;;2.83;2.63;;;20.20;68.10;;;;;;4972268;28;43525;-59
2022/10/30 01:35:26;;;;;;;3.47;2.47;;;20.20;68.10;;;;;;5063722;28;43462;-59
2022/10/30 01:38:20;;;;;;;4.55;2.70;;;20.10;68.10;;;;;;5079391;28;43910;-59
2022/10/30 01:40:51;;;;;;;2.80;2.50;;;20.20;68.20;;;;;;5069852;28;43453;-59
2022/10/30 01:43:19;;;;;;;4.18;2.60;;;20.10;68.10;;;;;;5077092;28;43394;-59
2022/10/30 01:45:58;;;;;;;3.28;2.50;;;20.10;68.10;;;;;;5067573;28;43580;-59
2022/10/30 01:48:35;;;;;;;3.13;2.58;;;20.10;68.10;;;;;;5068191;28;43938;-59
2022/10/30 01:51:19;;;;;;;3.10;2.80;;;20.10;68.10;;;;;;5078280;28;43475;-59
2022/10/30 01:54:20;;;;;;;2.97;2.65;;;20.10;68.10;;;;;;5065119;28;44088;-59
2022/10/30 01:56:47;;;;;;;;;;;20.10;68.10;;;;;;5085541;27;43608;-59
2022/10/30 01:59:33;;;;;;;2.90;2.70;;;20.10;68.20;;;;;;5065366;28;44059;-59
2022/10/30 02:02:00;;;;;;;2.83;2.63;;;20.10;68.20;;;;;;5075508;28;44025;-59
2022/10/30 02:04:30;;;;;;;3.50;2.50;;;20.10;68.20;;;;;;5067833;28;43332;-59
2022/10/30 02:06:58;;;;;;;3.25;2.80;;;20.10;68.20;;;;;;5063765;28;43624;-59
2022/10/30 02:09:25;;;;;;;2.80;2.60;;;20.10;68.20;;;;;;5073916;28;44803;-59
2022/10/30 02:11:54;;;;;;;2.80;2.60;;;20.10;68.20;;;;;;5076749;28;43381;-59
2022/10/30 02:14:33;;;;;;;3.53;2.60;;;20.10;68.20;;;;;;5066294;28;43431;-59
2022/10/30 02:17:05;;;;;;;2.90;2.70;;;20.10;68.20;;;;;;5072040;28;43419;-59
2022/10/30 02:19:34;;;;;;;2.97;2.70;;;20.10;68.20;;;;;;5062187;28;45135;-59
2022/10/30 02:22:02;;;;;;;3.17;2.85;;;20.10;68.10;;;;;;5070119;28;43448;-59
2022/10/30 02:24:30;;;;;;;3.10;2.72;;;20.10;68.10;;;;;;5080299;27;43430;-59
2022/10/30 02:26:59;;;;;;;3.10;2.90;;;20.10;68.20;;;;;;5079352;28;43649;-59
2022/10/30 02:29:26;;;;;;;4.07;2.90;;;20.10;68.10;;;;;;5076441;28;44047;-59
2022/10/30 02:31:54;;;;;;;3.22;2.85;;;20.10;68.10;;;;;;5079103;28;43508;-59
2022/10/30 02:34:21;;;;;;;3.47;3.00;;;20.10;68.20;;;;;;5078440;28;43492;-59
2022/10/30 02:36:49;;;;;;;3.42;2.60;;;20.10;68.20;;;;;;5080695;27;43541;-59
2022/10/30 02:39:18;;;;;;;3.65;3.05;;;20.10;68.20;;;;;;5076459;28;44184;-59
2022/10/30 02:41:47;;;;;;;3.40;3.10;;;20.00;68.10;;;;;;5076038;28;43466;-59
2022/10/30 02:44:14;;;;;;;3.83;3.00;;;20.10;68.20;;;;;;5070813;28;43428;-59
2022/10/30 02:46:42;;;;;;;2.90;2.47;;;20.00;68.20;;;;;;5062169;28;43682;-59
2022/10/30 02:49:09;;;;;;;3.13;2.83;;;20.00;68.10;;;;;;5076746;28;43801;-59
2022/10/30 02:51:37;;;;;;;4.38;2.60;;;20.00;68.10;;;;;;5078743;28;43960;-59
2022/10/30 02:54:04;;;;;;;3.25;2.90;;;20.00;68.20;;;;;;5065673;28;43561;-59
2022/10/30 02:56:32;;;;;;;2.75;2.50;;;20.00;68.20;;;;;;5055768;28;43585;-59
2022/10/30 02:58:59;;;;;;;2.97;2.72;;;20.00;68.10;;;;;;5070806;28;44049;-59
2022/10/30 03:01:27;;;;;;;3.30;2.90;;;20.00;68.20;;;;;;5091881;27;44071;-59
2022/10/30 03:03:57;;;;;;;3.40;2.67;;;20.00;68.20;;;;;;5064670;28;43399;-59
2022/10/30 03:06:24;;;;;;;2.85;2.65;;;20.00;68.20;;;;;;5072534;28;43420;-59
2022/10/30 03:08:52;;;;;;;2.80;2.58;;;20.00;68.20;;;;;;5077397;27;45002;-59
2022/10/30 03:11:19;;;;;;;3.95;2.90;;;20.00;68.20;;;;;;5077928;28;43801;-59
2022/10/30 03:13:47;;;;;;;3.13;2.83;;;20.00;68.20;;;;;;5080479;27;43416;-59
2022/10/30 03:16:18;;;;;;;3.35;2.50;;;20.00;68.20;;;;;;5079206;28;43513;-59
2022/10/30 03:18:47;;;;;;;3.33;2.63;;;20.00;68.20;;;;;;5061765;28;44760;-59
2022/10/30 03:21:16;;;;;;;3.45;3.13;;;20.00;68.20;;;;;;5063699;28;43390;-59
2022/10/30 03:23:44;;;;;;;3.65;3.15;;;20.00;68.10;;;;;;5069365;28;43417;-59
2022/10/30 03:26:12;;;;;;;2.85;2.65;;;20.00;68.20;;;;;;5066445;28;43378;-59
2022/10/30 03:28:51;;;;;;;3.70;2.75;;;20.00;68.20;;;;;;5066546;28;44711;-59
2022/10/30 03:31:19;;;;;;;2.90;2.65;;;20.00;68.20;;;;;;5078208;28;43464;-59
2022/10/30 03:33:56;;;;;;;4.50;3.00;;;20.00;68.20;;;;;;5061559;28;43443;-59
2022/10/30 03:36:24;;;;;;;3.40;2.85;;;20.00;68.20;;;;;;5077746;28;43478;-59
2022/10/30 03:38:52;;;;;;;3.35;3.05;;;19.90;68.10;;;;;;5079109;28;44917;-59
2022/10/30 03:41:19;;;;;;;3.00;2.80;;;19.90;68.10;;;;;;5078271;28;43467;-59
2022/10/30 03:43:47;;;;;;;3.78;3.10;;;19.90;68.20;;;;;;5074442;27;43435;-59
2022/10/30 03:46:14;;;;;;;3.00;2.80;;;19.90;68.20;;;;;;5075564;28;43463;-59
2022/10/30 03:48:42;;;;;;;3.00;2.80;;;19.90;68.80;;;;;;5077585;28;44936;-59
2022/10/30 03:51:12;;;;;;;3.25;2.95;;;19.90;68.20;;;;;;5073487;28;43456;-59
2022/10/30 03:53:41;;;;;;;3.08;2.85;;;19.90;68.20;;;;;;5060947;28;43461;-59
2022/10/30 03:56:09;;;;;;;3.95;3.00;;;19.90;68.20;;;;;;5074122;28;43582;-59
2022/10/30 03:58:45;;;;;;;3.33;3.03;;;19.90;68.20;;;;;;5075034;28;44166;-59
2022/10/30 04:01:18;;;;;;;4.80;3.20;;;19.90;68.20;;;;;;5070423;28;43459;-59
2022/10/30 04:03:49;;;;;;;3.15;2.80;;;19.90;68.20;;;;;;5069168;28;44040;-59
2022/10/30 04:06:17;;;;;;;3.97;3.00;;;19.90;68.20;;;;;;5056534;28;43746;-59
2022/10/30 04:08:45;;;;;;;3.70;3.20;;;19.90;68.20;;;;;;5058666;28;44067;-59
2022/10/30 04:11:12;;;;;;;3.47;2.80;;;19.90;68.20;;;;;;5064612;28;43854;-59
2022/10/30 04:13:40;;;;;;;3.28;2.97;;;19.90;68.20;;;;;;5072978;28;43391;-59
2022/10/30 04:16:07;;;;;;;3.72;3.00;;;19.90;68.20;;;;;;5082113;28;43628;-59
2022/10/30 04:18:34;;;;;;;3.10;2.80;;;19.90;68.20;;;;;;5067655;28;43792;-59
2022/10/30 04:21:02;;;;;;;3.30;3.00;;;19.90;68.20;;;;;;5079243;28;43419;-59
2022/10/30 04:23:32;;;;;;;3.40;3.10;;;19.90;68.20;;;;;;5082264;28;43446;-59
2022/10/30 04:26:01;;;;;;;3.90;2.88;;;19.80;68.20;;;;;;5083545;28;44019;-59
2022/10/30 04:28:28;;;;;;;3.00;2.70;;;19.80;68.10;;;;;;5083521;28;44991;-59
2022/10/30 04:30:56;;;;;;;3.55;3.20;;;19.80;68.20;;;;;;5085002;28;43478;-59
2022/10/30 04:33:25;;;;;;;3.20;2.90;;;19.90;68.20;;;;;;5081591;28;43455;-59
2022/10/30 04:35:53;;;;;;;3.03;2.80;;;19.80;68.20;;;;;;5082637;28;43459;-59
2022/10/30 04:38:21;;;;;;;3.30;3.00;;;19.80;68.20;;;;;;5067261;28;44027;-59
2022/10/30 04:40:48;;;;;;;3.40;3.10;;;19.80;68.20;;;;;;5078746;28;43482;-59
2022/10/30 04:43:17;;;;;;;3.53;3.05;;;19.80;68.20;;;;;;5068640;28;43470;-59
2022/10/30 04:45:48;;;;;;;3.30;3.00;;;19.80;68.20;;;;;;5083478;28;43438;-59
2022/10/30 04:48:17;;;;;;;2.95;2.60;;;19.80;68.20;;;;;;5085027;27;43792;-59
2022/10/30 04:50:46;;;;;;;2.88;2.60;;;19.80;68.20;;;;;;5076866;28;43440;-59
2022/10/30 04:53:22;;;;;;;3.40;2.90;;;19.80;68.20;;;;;;5066733;28;43484;-59
2022/10/30 04:55:55;;;;;;;2.90;2.70;;;19.80;68.20;;;;;;5073173;28;43530;-59
2022/10/30 04:58:23;;;;;;;2.80;2.60;;;19.80;68.20;;;;;;5079267;28;44938;-59
2022/10/30 05:01:06;;;;;;;2.90;2.70;;;19.80;68.20;;;;;;5081380;28;44301;-59
2022/10/30 05:03:35;;;;;;;3.00;2.80;;;19.80;68.20;;;;;;5067085;28;43487;-59
2022/10/30 05:06:22;;;;;;;3.05;2.85;;;19.80;68.20;;;;;;5074354;28;43537;-59
2022/10/30 05:08:50;;;;;;;3.35;3.05;;;19.80;68.10;;;;;;5083237;28;43882;-59
2022/10/30 05:11:28;;;;;;;3.20;2.90;;;19.80;68.10;;;;;;5077042;28;43471;-59
2022/10/30 05:13:56;;;;;;;3.38;3.00;;;19.80;68.10;;;;;;5073942;28;43545;-59
2022/10/30 05:16:23;;;;;;;3.60;3.30;;;19.80;68.10;;;;;;5070401;28;43446;-59
2022/10/30 05:18:51;;;;;;;3.58;2.88;;;19.80;68.00;;;;;;5068316;28;44988;-59
2022/10/30 05:21:19;;;;;;;5.22;3.00;;;19.80;68.00;;;;;;5070247;28;43504;-59
2022/10/30 05:23:46;;;;;;;3.22;2.92;;;19.80;68.00;;;;;;5071604;28;43400;-59
2022/10/30 05:26:14;;;;;;;3.30;3.00;;;19.80;68.00;;;;;;5082067;27;43574;-59
2022/10/30 05:28:41;;;;;;;3.15;2.85;;;19.80;68.00;;;;;;5066504;28;43814;-59
2022/10/30 05:31:09;;;;;;;3.03;2.70;;;19.80;68.00;;;;;;5071711;27;43774;-59
2022/10/30 05:33:55;;;;;;;3.35;3.05;;;19.80;68.00;;;;;;5070030;28;43471;-59
2022/10/30 05:36:24;;;;;;;2.83;2.55;;;19.80;68.00;;;;;;5068848;28;43604;-59
2022/10/30 05:38:52;;;;;;;2.97;2.72;;;19.80;68.00;;;;;;5062743;28;43993;-59
2022/10/30 05:41:29;;;;;;;3.22;2.92;;;19.80;68.10;;;;;;5072988;28;43499;-59
2022/10/30 05:43:57;;;;;;;3.47;2.60;;;19.80;68.10;;;;;;5072498;27;43431;-59
2022/10/30 05:46:25;;;;;;;3.25;2.95;;;19.80;68.00;;;;;;5075037;28;43472;-59
2022/10/30 05:48:54;;;;;;;3.20;2.50;;;19.80;68.00;;;;;;5061510;28;43656;-59
2022/10/30 05:51:23;;;;;;;3.33;3.03;;;19.80;68.00;;;;;;5066024;28;43735;-59
2022/10/30 05:53:54;;;;;;;3.53;2.97;;;19.80;68.00;;;;;;5067113;28;43443;-59
2022/10/30 05:56:25;;;;;;;3.60;3.10;;;19.80;68.00;;;;;;5077605;28;43473;-59
2022/10/30 05:58:55;;;;;;;4.60;2.92;;;19.80;68.10;;;;;;5078090;28;44053;-59
2022/10/30 06:01:23;;;;;;;3.08;2.80;;;19.80;68.10;;;;;;5069193;28;43440;-59
2022/10/30 06:03:54;;;;;;;4.15;3.08;;;19.80;68.10;;;;;;5069718;28;43480;-59
2022/10/30 06:06:22;;;;;;;3.45;3.15;;;19.80;68.10;;;;;;5070885;28;43521;-59
2022/10/30 06:08:49;;;;;;;3.33;2.90;;;19.80;68.10;;;;;;5067633;28;44769;-59
2022/10/30 06:11:52;;;;;;;3.40;3.08;;;19.80;68.10;;;;;;5027861;28;43549;-59
2022/10/30 06:14:27;;;;;;;3.70;2.80;;;19.80;68.10;;;;;;5061650;28;43471;-59
2022/10/30 06:16:54;;;;;;;3.00;2.80;;;19.80;68.10;;;;;;5062499;28;43495;-59
2022/10/30 06:19:31;;;;;;;4.30;3.08;;;19.80;68.10;;;;;;5066776;28;43681;-59
2022/10/30 06:22:18;;;;;;;3.40;2.92;;;19.80;68.10;;;;;;5054269;28;43500;-59
2022/10/30 06:24:56;;;;;;;4.90;3.10;;;19.80;68.00;;;;;;5073209;28;43423;-59
2022/10/30 06:27:44;;;;;;;3.35;3.05;;;19.70;68.00;;;;;;5070395;28;43503;-59
2022/10/30 06:30:12;;;;;;;3.53;3.00;;;19.70;68.00;;;;;;5064935;28;44149;-59
2022/10/30 06:32:39;;;;;;;3.75;3.00;;;19.70;68.10;;;;;;5054522;28;44023;-59
2022/10/30 06:35:07;;;;;;;3.67;3.00;;;19.80;68.10;;;;;;5071714;28;43642;-59
2022/10/30 06:37:35;;;;;;;3.25;2.90;;;19.70;68.00;;;;;;5062177;28;43474;-59
2022/10/30 06:40:08;;;;;;;3.70;3.20;;;19.80;68.10;;;;;;5069604;28;44006;-59
2022/10/30 06:42:55;;;;;;;3.08;2.70;;;19.70;68.10;;;;;;5075315;28;43438;-59
2022/10/30 06:45:37;;;;;;;2.72;2.53;;;19.70;68.00;;;;;;5072579;28;44079;-60
2022/10/30 06:48:05;;;;;;;3.05;2.83;;;19.70;68.10;;;;;;5072264;28;43877;-59
2022/10/30 06:50:38;;;;;;;3.50;3.17;;;19.80;68.00;;;;;;5071306;28;44064;-59
2022/10/30 06:53:07;;;;;;;3.97;3.28;;;19.80;68.10;;;;;;5073433;28;43458;-59
2022/10/30 06:55:34;;;;;;;3.97;2.85;;;19.80;68.10;;;;;;5069283;28;43496;-59
2022/10/30 06:58:21;;;;;;;3.53;3.03;;;19.80;68.00;;;;;;5071300;28;43633;-59
2022/10/30 07:00:58;;;;;;;3.47;3.17;;;19.80;68.00;;;;;;5067162;28;45305;-59
2022/10/30 07:03:52;;;;;;;3.33;2.97;;;19.70;68.00;;;;;;5058667;28;43506;-59
2022/10/30 07:06:19;;;;;;;3.30;3.00;;;19.70;68.00;;;;;;5068970;28;43430;-60
2022/10/30 07:08:47;;;;;;;3.20;2.90;;;19.80;68.00;;;;;;5055302;28;43466;-59
2022/10/30 07:11:15;;;;;;;3.25;2.88;;;19.70;68.00;;;;;;5065713;28;44860;-59
2022/10/30 07:13:56;;;;;;;;;;;19.80;68.10;;;;;;5079298;28;43439;-59
2022/10/30 07:16:29;;;;;;;3.58;3.20;;;19.80;68.20;;;;;;5051137;28;43491;-59
2022/10/30 07:18:56;;;;;;;3.50;3.20;;;19.70;68.10;;;;;;5069328;28;43373;-59
2022/10/30 07:21:30;;;;;;;3.65;2.90;;;19.70;68.10;;;;;;5071088;28;44959;-60
2022/10/30 07:23:58;;;;;;;3.28;2.97;;;19.70;68.00;;;;;;5072209;28;43641;-59
2022/10/30 07:26:36;;;;;;;3.75;3.00;;;19.70;68.10;;;;;;5070578;28;43399;-60
2022/10/30 07:29:22;;;;;;;5.82;4.05;;;19.70;68.00;;;;;;5065017;28;43438;-59
2022/10/30 07:32:22;;;;;;;3.63;3.15;;;19.70;68.10;;;;;;5056317;28;44926;-59
2022/10/30 07:35:29;;;;;;;4.53;3.25;;;19.70;68.10;;;;;;5031487;28;43532;-60
2022/10/30 07:38:13;;;;;;;4.28;3.15;;;19.70;68.20;;;;;;5025487;28;44280;-59
2022/10/30 07:40:52;;;;;;;5.03;3.17;;;19.70;68.80;;;;;;5061540;28;43579;-59
2022/10/30 07:43:52;;;;;;;3.45;3.00;;;19.70;68.10;;;;;;5054587;28;46092;-59
2022/10/30 07:46:45;;;;;;;4.57;3.05;;;19.70;68.20;;;;;;5060252;28;43970;-59
2022/10/30 07:49:31;;;;;;;5.18;3.33;;;19.70;68.20;;;;;;5066885;28;43389;-59
2022/10/30 07:52:05;;;;;;;3.42;3.10;;;19.70;68.10;;;;;;5073150;28;43503;-59
2022/10/30 07:54:32;;;;;;;3.53;3.20;;;19.70;68.20;;;;;;5063545;28;43774;-59
2022/10/30 07:57:14;;;;;;;4.10;3.20;;;19.70;68.10;;;;;;5066445;28;43540;-58
2022/10/30 08:00:00;;;;;;;3.47;3.17;;;19.70;68.10;;;;;;5081121;27;43456;-59
2022/10/30 08:02:40;;;;;;;3.83;3.40;;;19.70;68.60;;;;;;5065172;28;43591;-58
2022/10/30 08:05:21;;;;;;;3.67;3.10;;;19.70;68.00;;;;;;5066361;28;43780;-59
2022/10/30 08:08:08;;;;;;;3.10;2.80;;;19.70;68.60;;;;;;5069521;28;43735;-58
2022/10/30 08:10:36;;;;;;;3.60;3.13;;;19.80;68.00;;;;;;5065695;28;43531;-59
2022/10/30 08:13:04;;;;;;;3.40;3.10;;;19.80;68.00;;;;;;5047706;28;43642;-58
2022/10/30 08:15:31;;;;;;;3.30;3.00;;;19.80;68.00;;;;;;5062442;28;44949;-59
2022/10/30 08:17:59;;;;;;;3.72;3.40;;;19.70;67.90;;;;;;5066681;28;43702;-59
2022/10/30 08:20:27;;;;;;;4.22;3.10;;;19.80;67.90;;;;;;5065660;28;43539;-58
2022/10/30 08:22:56;;;;;;;4.07;3.25;;;19.80;68.00;;;;;;5070776;27;43482;-60
2022/10/30 08:25:27;;;;;;;6.05;3.85;;;19.80;68.00;;;;;;5043468;28;45052;-60
2022/10/30 08:28:03;;;;;;;5.13;3.75;;;19.80;68.70;;;;;;5071690;28;43448;-59
2022/10/30 08:30:36;;;;;;;;;;;19.80;68.00;;;;;;5063691;28;43464;-59
2022/10/30 08:33:09;;;;;;;4.35;3.60;;;19.80;68.20;;;;;;5067012;28;44206;-61
2022/10/30 08:35:50;;;;;;;6.63;3.30;;;19.80;68.30;;;;;;5062850;28;44705;-62
2022/10/30 08:38:18;;;;;;;4.50;3.50;;;19.80;68.30;;;;;;5062718;28;43387;-60
2022/10/30 08:40:53;;;;;;;4.90;3.80;;;19.90;68.30;;;;;;5063921;28;43430;-59
2022/10/30 08:43:24;;;;;;;4.05;3.30;;;20.00;68.10;;;;;;5064452;28;43587;-61
2022/10/30 08:45:51;;;;;;;4.05;3.47;;;20.00;68.30;;;;;;5063852;28;45078;-59
2022/10/30 08:48:21;;;;;;;5.05;3.20;;;20.10;68.40;;;;;;5062516;28;43728;-60
2022/10/30 08:50:49;;;;;;;5.38;3.40;;;20.20;68.40;;;;;;5064475;28;43516;-59
2022/10/30 08:53:24;;;;;;;4.63;3.30;;;20.30;68.10;;;;;;5065854;28;43538;-58
2022/10/30 08:55:53;;;;;;;6.53;3.40;;;20.40;67.90;;;;;;5061842;28;43953;-60
2022/10/30 08:58:37;;;;;;;4.47;3.40;;;20.50;67.70;;;;;;5063138;28;45455;-60
2022/10/30 09:01:04;;;;;;;5.65;3.33;;;20.70;67.70;;;;;;5067917;28;43485;-59
2022/10/30 09:03:50;;;;;;;4.28;3.35;;;20.80;67.40;;;;;;5068989;28;43514;-59
2022/10/30 09:06:47;;;;;;;5.07;3.10;;;20.90;67.10;;;;;;5060469;28;43805;-59
2022/10/30 09:09:33;;;;;;;4.07;3.65;;;21.10;66.90;;;;;;5064142;28;43439;-59
2022/10/30 09:12:02;;;;;;;3.85;2.95;;;21.20;66.70;;;;;;5073040;28;43487;-59
2022/10/30 09:14:35;;;;;;;3.50;3.20;;;21.30;66.50;;;;;;5079596;28;43445;-59
2022/10/30 09:17:03;;;;;;;4.78;3.33;;;21.50;66.30;;;;;;5065997;28;43783;-61
2022/10/30 09:19:31;;;;;;;4.32;3.00;;;21.60;66.10;;;;;;5072900;28;43510;-59
2022/10/30 09:21:59;;;;;;;4.18;3.13;;;21.70;66.00;;;;;;5072526;28;43619;-58
2022/10/30 09:24:26;;;;;;;3.75;3.35;;;21.80;65.90;;;;;;5077555;28;43533;-59
2022/10/30 09:26:54;;;;;;;6.65;3.45;;;21.90;65.60;;;;;;5071254;28;44815;-60
2022/10/30 09:29:26;;;;;;;3.63;2.75;;;22.00;65.50;;;;;;5069432;28;43687;-60
2022/10/30 09:32:09;;;;;;;3.38;3.08;;;22.10;65.40;;;;;;5066943;28;43505;-60
2022/10/30 09:34:47;;;;;;;4.07;3.10;;;22.10;65.00;;;;;;5067568;28;43439;-60
2022/10/30 09:37:21;;;;;;;5.55;3.00;;;22.20;64.80;;;;;;5059365;28;45064;-60
2022/10/30 09:39:53;;;;;;;5.00;3.10;;;22.20;64.70;;;;;;5072774;28;43989;-60
2022/10/30 09:42:41;;;;;;;4.25;3.42;;;22.30;64.50;;;;;;5072541;28;43514;-59
2022/10/30 09:45:29;;;;;;;6.57;3.28;;;22.30;64.50;;;;;;5070550;28;43465;-59
2022/10/30 09:48:04;;;;;;;5.57;3.30;;;22.30;64.40;;;;;;5074159;28;43810;-59
2022/10/30 09:50:54;;;;;;;4.28;3.38;;;22.30;64.40;;;;;;5080246;28;43918;-59
2022/10/30 09:53:34;;;;;;;3.97;3.05;;;22.30;64.40;;;;;;5069109;28;43471;-60
2022/10/30 09:56:39;;;;;;;4.57;3.40;;;22.30;64.50;;;;;;5067101;28;43392;-60
2022/10/30 09:59:19;;;;;;;3.63;3.22;;;22.30;64.40;;;;;;5032751;28;44969;-60
2022/10/30 10:02:08;;;;;;;3.97;3.10;;;22.30;64.40;;;;;;5072894;28;43446;-60
2022/10/30 10:04:45;;;;;;;4.70;3.50;;;22.30;64.40;;;;;;5053711;28;43466;-60
2022/10/30 10:07:18;;;;;;;4.80;3.35;;;22.30;64.50;;;;;;5071050;28;43538;-59
2022/10/30 10:10:02;;;;;;;3.92;3.15;;;22.20;64.50;;;;;;5063750;28;43814;-60
2022/10/30 10:12:50;;;;;;;4.10;3.35;;;22.20;64.60;;;;;;5067475;28;43419;-60
2022/10/30 10:15:37;;;;;;;5.97;3.60;;;22.20;64.70;;;;;;5071603;28;43454;-60
2022/10/30 10:18:19;;;;;;;4.07;3.25;;;22.20;64.80;;;;;;5068051;28;43460;-60
2022/10/30 10:20:51;;;;;;;5.15;3.28;;;22.20;64.90;;;;;;5071187;27;44655;-60
2022/10/30 10:23:31;;;;;;;4.65;3.05;;;22.10;64.90;;;;;;5069787;28;43981;-60
2022/10/30 10:26:09;;;;;;;6.07;3.30;;;22.10;65.00;;;;;;5067480;28;43507;-60
2022/10/30 10:29:19;;;;;;;5.10;3.50;;;22.10;65.10;;;;;;5072358;28;43371;-60
2022/10/30 10:31:49;;;;;;;5.15;3.67;;;22.00;65.10;;;;;;5063390;28;43839;-60
2022/10/30 10:34:28;;;;;;;4.20;3.10;;;22.00;65.20;;;;;;5066684;28;43561;-60
2022/10/30 10:36:55;;;;;;;5.78;3.20;;;22.00;65.30;;;;;;5080992;28;43458;-60
2022/10/30 10:39:23;;;;;;;3.38;2.70;;;22.00;65.30;;;;;;5068120;27;43450;-60
2022/10/30 10:42:11;;;;;;;4.15;2.95;;;22.00;65.30;;;;;;5073991;27;44763;-59
2022/10/30 10:44:45;;;;;;;4.40;3.13;;;21.90;65.30;;;;;;5068765;28;43800;-60
2022/10/30 10:47:54;;;;;;;3.05;2.72;;;21.90;65.40;;;;;;5079734;28;43364;-60
2022/10/30 10:50:32;;;;;;;3.70;3.05;;;21.90;65.50;;;;;;5063123;28;43523;-60
2022/10/30 10:53:05;;;;;;;3.95;3.15;;;21.90;65.60;;;;;;5063434;27;44162;-60
2022/10/30 10:55:37;;;;;;;4.88;2.95;;;21.90;65.70;;;;;;5078089;28;43685;-59
2022/10/30 10:58:44;;;;;;;4.07;2.65;;;21.90;65.70;;;;;;5073685;27;43995;-60
2022/10/30 11:01:16;;;;;;;3.45;3.13;;;21.90;65.70;;;;;;5062997;28;43548;-60
2022/10/30 11:03:49;;;;;;;3.50;3.20;;;21.90;65.80;;;;;;5063911;28;44872;-59
2022/10/30 11:06:21;;;;;;;3.70;2.80;;;21.90;65.90;;;;;;5063154;28;43485;-60
2022/10/30 11:08:51;;;;;;;6.25;3.13;;;21.90;65.90;;;;;;5068752;28;43437;-59
2022/10/30 11:11:18;;;;;;;3.67;3.00;;;21.90;66.10;;;;;;5055847;28;43443;-60
2022/10/30 11:13:48;;;;;;;2.92;2.65;;;21.90;66.10;;;;;;5073703;28;43744;-60
2022/10/30 11:16:33;;;;;;;3.28;2.97;;;21.80;66.00;;;;;;5069862;28;43572;-60
2022/10/30 11:19:03;;;;;;;3.08;2.55;;;21.80;66.00;;;;;;5071849;27;43542;-59
2022/10/30 11:21:44;;;;;;;4.75;2.92;;;21.80;66.00;;;;;;5071732;28;43511;-59
2022/10/30 11:24:33;;;;;;;3.22;2.60;;;21.80;66.10;;;;;;5056423;28;44023;-60
2022/10/30 11:27:23;;;;;;;3.95;2.95;;;21.80;66.10;;;;;;5069197;28;43451;-60
2022/10/30 11:30:05;;;;;;;3.92;2.78;;;21.80;66.10;;;;;;5062635;28;43439;-59
2022/10/30 11:32:34;;;;;;;4.22;2.72;;;21.80;66.10;;;;;;5070561;28;43454;-59
2022/10/30 11:35:08;;;;;;;2.97;2.67;;;21.80;66.10;;;;;;5071421;28;43919;-59
2022/10/30 11:37:38;;;;;;;3.97;2.90;;;21.90;66.10;;;;;;5070644;28;43630;-60
2022/10/30 11:40:19;;;;;;;3.30;2.92;;;21.80;66.10;;;;;;5069820;27;43485;-59
2022/10/30 11:43:00;;;;;;;3.78;2.85;;;21.90;66.10;;;;;;5069644;28;43642;-59
2022/10/30 11:45:37;;;;;;;3.15;2.78;;;21.90;66.00;;;;;;5067381;28;43649;-60
2022/10/30 11:48:22;;;;;;;3.03;2.65;;;21.90;65.90;;;;;;5069723;28;43376;-59
2022/10/30 11:50:53;;;;;;;2.88;2.58;;;21.90;65.90;;;;;;5069875;28;43420;-60
2022/10/30 11:53:30;;;;;;;2.80;2.60;;;21.90;65.90;;;;;;5071134;27;43501;-60
2022/10/30 11:55:58;;;;;;;2.72;2.53;;;21.90;65.90;;;;;;5068937;28;43631;-60
2022/10/30 11:58:41;;;;;;;2.70;2.50;;;21.90;65.90;;;;;;5066360;27;43690;-60
2022/10/30 12:01:20;;;;;;;3.67;3.00;;;21.90;65.80;;;;;;5070554;28;43453;-60
2022/10/30 12:03:49;;;;;;;3.08;2.63;;;21.90;66.10;;;;;;5070567;28;43536;-59
2022/10/30 12:06:34;;;;;;;3.38;2.60;;;21.90;66.10;;;;;;5065952;27;43889;-60
2022/10/30 12:09:18;;;;;;;4.00;2.90;;;21.90;65.90;;;;;;5068336;28;43953;-59
2022/10/30 12:11:47;;;;;;;2.65;2.45;;;21.90;66.00;;;;;;5071023;28;43561;-60
2022/10/30 12:14:21;;;;;;;3.13;2.70;;;22.00;65.90;;;;;;5074949;27;43364;-61
2022/10/30 12:16:55;;;;;;;2.85;2.58;;;22.00;66.10;;;;;;5066113;28;43971;-60
2022/10/30 12:19:24;;;;;;;3.30;2.50;;;22.00;66.00;;;;;;5069945;28;43453;-60
2022/10/30 12:21:55;;;;;;;3.40;3.00;;;22.00;66.00;;;;;;5070655;28;43391;-60
2022/10/30 12:24:31;;;;;;;3.42;2.65;;;22.00;65.90;;;;;;5071974;28;43379;-59
2022/10/30 12:27:13;;;;;;;2.80;2.50;;;21.90;65.90;;;;;;5072361;28;43780;-59
2022/10/30 12:30:08;;;;;;;3.63;3.30;;;22.00;66.00;;;;;;5065378;28;43498;-59
2022/10/30 12:32:56;;;;;;;3.00;2.55;;;21.90;66.10;;;;;;5053289;28;43499;-59
2022/10/30 12:35:38;;;;;;;4.03;2.80;;;21.90;66.10;;;;;;5065888;27;43613;-59
2022/10/30 12:38:16;;;;;;;3.40;2.60;;;21.90;66.20;;;;;;5071882;28;43846;-59
2022/10/30 12:40:57;;;;;;;2.80;2.58;;;21.90;66.20;;;;;;5071281;27;43402;-60
2022/10/30 12:43:26;;;;;;;3.15;2.30;;;21.90;66.10;;;;;;5064978;28;43391;-60
2022/10/30 12:46:18;;;;;;;2.85;2.63;;;21.90;66.20;;;;;;5064967;28;43504;-60
2022/10/30 12:49:30;;;;;;;3.67;2.70;;;21.90;66.20;;;;;;5071646;28;43833;-59
2022/10/30 12:52:06;;;;;;;2.50;2.30;;;21.90;66.30;;;;;;5041111;28;43423;-59
2022/10/30 12:55:02;;;;;;;2.38;2.17;;;21.90;66.90;;;;;;5071109;27;43396;-59
2022/10/30 12:57:36;;;;;;;2.70;2.50;;;21.90;66.30;;;;;;5064643;28;43468;-60
2022/10/30 13:00:14;;;;;;;2.78;2.45;;;21.90;66.30;;;;;;5070169;28;44054;-59
2022/10/30 13:03:09;;;;;;;2.50;2.30;;;21.80;66.30;;;;;;5071337;27;44108;-59
2022/10/30 13:05:49;;;;;;;3.78;2.45;;;21.80;66.30;;;;;;5064341;28;43555;-59
2022/10/30 13:08:24;;;;;;;2.90;2.63;;;21.80;66.50;;;;;;5067654;28;43529;-59
2022/10/30 13:11:06;;;;;;;2.65;2.45;;;21.80;66.50;;;;;;5067439;28;44038;-59
2022/10/30 13:13:40;;;;;;;2.75;2.45;;;21.80;66.60;;;;;;5077810;28;43448;-59
2022/10/30 13:16:15;;;;;;;3.30;2.72;;;21.80;66.60;;;;;;5073119;27;43508;-59
2022/10/30 13:18:42;;;;;;;3.20;2.80;;;21.80;66.60;;;;;;5070245;28;43581;-59
2022/10/30 13:21:09;;;;;;;3.08;2.75;;;21.80;66.60;;;;;;5071045;27;43883;-59
2022/10/30 13:24:00;;;;;;;2.83;2.53;;;21.80;66.60;;;;;;5081411;27;43901;-59
2022/10/30 13:26:28;;;;;;;2.75;2.50;;;21.80;66.50;;;;;;5070718;27;43436;-59